KBDL

Bradley International Airport

Windsor Locks, Connecticut, USA
METAR KBDL 241113Z 36007KT 10SM BKN018 BKN250 09/08 A3047 RMK AO2 T00940078
Observed Flight Rules
Sep-24 @ 11:13 UTC (43 minutes ago) Marginal Visual Flight Rules
Wind Visibility Clouds
360° at 7 knots 10 miles
  • Broken at 1,800' AGL
  • Broken at 25,000' AGL
Temperatures Readings
Current 9°C / 48°F
Dewpoint 8°C / 46°F
Humidity 94%
Altimeter 30.47" Hg
Pressure 1032 hPa
Elevation 60
METAR KBDL 241113Z 36007KT 10SM BKN018 BKN250 09/08 A3047 RMK AO2 T00940078
Observed Flight Rules
Sep-24 @ 11:13 UTC
(43 minutes ago)
MVFR
Wind Visibility
360° at 7 knots 10 miles
Clouds
  • Broken at 1,800' AGL
  • Broken at 25,000' AGL
Temperature Dewpoint
9°C / 48°F 8°C / 46°F
Humidity Altimeter Pressure
94% 30.47" Hg 1032 hPa